sensor_id;sensor_type;location;lat;lon;timestamp;temperature;humidity
32394;DHT22;18853;45.426;9.206;2022-12-07T00:01:39;10.00;57.20
32394;DHT22;18853;45.426;9.206;2022-12-07T00:04:06;10.00;57.30
32394;DHT22;18853;45.426;9.206;2022-12-07T00:09:03;10.00;57.50
32394;DHT22;18853;45.426;9.206;2022-12-07T00:11:29;10.00;58.20
32394;DHT22;18853;45.426;9.206;2022-12-07T00:13:57;9.90;57.70
32394;DHT22;18853;45.426;9.206;2022-12-07T00:16:28;10.00;57.80
32394;DHT22;18853;45.426;9.206;2022-12-07T00:18:54;10.00;57.80
32394;DHT22;18853;45.426;9.206;2022-12-07T00:21:22;10.00;57.70
32394;DHT22;18853;45.426;9.206;2022-12-07T00:23:49;10.10;57.60
32394;DHT22;18853;45.426;9.206;2022-12-07T00:26:18;10.00;57.60
32394;DHT22;18853;45.426;9.206;2022-12-07T00:28:58;10.10;57.60
32394;DHT22;18853;45.426;9.206;2022-12-07T00:31:26;10.10;57.50
32394;DHT22;18853;45.426;9.206;2022-12-07T00:33:52;10.00;57.50
32394;DHT22;18853;45.426;9.206;2022-12-07T00:36:20;10.00;57.30
32394;DHT22;18853;45.426;9.206;2022-12-07T00:38:46;10.00;57.30
32394;DHT22;18853;45.426;9.206;2022-12-07T00:41:14;10.00;57.30
32394;DHT22;18853;45.426;9.206;2022-12-07T00:43:42;10.00;57.20
32394;DHT22;18853;45.426;9.206;2022-12-07T00:46:08;10.00;57.10
32394;DHT22;18853;45.426;9.206;2022-12-07T00:48:34;10.00;56.90
32394;DHT22;18853;45.426;9.206;2022-12-07T00:51:00;10.00;56.80
32394;DHT22;18853;45.426;9.206;2022-12-07T00:53:27;10.00;56.60
32394;DHT22;18853;45.426;9.206;2022-12-07T00:55:53;9.90;56.60
32394;DHT22;18853;45.426;9.206;2022-12-07T00:58:19;9.90;56.60
32394;DHT22;18853;45.426;9.206;2022-12-07T01:00:45;9.80;56.70
32394;DHT22;18853;45.426;9.206;2022-12-07T01:03:13;9.80;57.10
32394;DHT22;18853;45.426;9.206;2022-12-07T01:05:39;9.80;57.00
32394;DHT22;18853;45.426;9.206;2022-12-07T01:08:05;9.80;57.00
32394;DHT22;18853;45.426;9.206;2022-12-07T01:10:31;9.90;57.00
32394;DHT22;18853;45.426;9.206;2022-12-07T01:12:58;9.90;56.90
32394;DHT22;18853;45.426;9.206;2022-12-07T01:15:24;9.80;56.90
32394;DHT22;18853;45.426;9.206;2022-12-07T01:17:50;9.80;56.90
32394;DHT22;18853;45.426;9.206;2022-12-07T01:20:16;9.90;57.00
32394;DHT22;18853;45.426;9.206;2022-12-07T01:22:43;9.90;57.00
32394;DHT22;18853;45.426;9.206;2022-12-07T01:25:10;9.90;57.10
32394;DHT22;18853;45.426;9.206;2022-12-07T01:27:37;10.00;56.80
32394;DHT22;18853;45.426;9.206;2022-12-07T01:30:05;9.90;56.30
32394;DHT22;18853;45.426;9.206;2022-12-07T01:32:31;9.90;56.30
32394;DHT22;18853;45.426;9.206;2022-12-07T01:34:57;9.90;56.20
32394;DHT22;18853;45.426;9.206;2022-12-07T01:37:23;9.80;56.00
32394;DHT22;18853;45.426;9.206;2022-12-07T01:39:51;9.70;56.00
32394;DHT22;18853;45.426;9.206;2022-12-07T01:42:18;9.70;56.10
32394;DHT22;18853;45.426;9.206;2022-12-07T01:47:50;9.70;56.50
32394;DHT22;18853;45.426;9.206;2022-12-07T01:50:17;9.50;56.90
32394;DHT22;18853;45.426;9.206;2022-12-07T01:52:44;9.50;57.20
32394;DHT22;18853;45.426;9.206;2022-12-07T01:55:13;9.50;58.00
32394;DHT22;18853;45.426;9.206;2022-12-07T01:57:43;9.50;57.60
32394;DHT22;18853;45.426;9.206;2022-12-07T02:00:11;9.50;57.70
32394;DHT22;18853;45.426;9.206;2022-12-07T02:02:58;9.60;57.70
32394;DHT22;18853;45.426;9.206;2022-12-07T02:05:26;9.60;57.90
32394;DHT22;18853;45.426;9.206;2022-12-07T02:07:54;9.60;57.80
32394;DHT22;18853;45.426;9.206;2022-12-07T02:10:26;9.70;57.70
32394;DHT22;18853;45.426;9.206;2022-12-07T02:13:05;9.80;57.30
32394;DHT22;18853;45.426;9.206;2022-12-07T02:18:19;9.80;56.20
32394;DHT22;18853;45.426;9.206;2022-12-07T02:21:00;9.70;56.00
32394;DHT22;18853;45.426;9.206;2022-12-07T02:26:35;9.50;55.50
32394;DHT22;18853;45.426;9.206;2022-12-07T02:29:20;9.40;55.70
32394;DHT22;18853;45.426;9.206;2022-12-07T02:32:11;9.40;55.80
32394;DHT22;18853;45.426;9.206;2022-12-07T02:34:50;9.40;56.00
32394;DHT22;18853;45.426;9.206;2022-12-07T02:39:59;9.30;56.20
32394;DHT22;18853;45.426;9.206;2022-12-07T02:42:38;9.30;56.30
32394;DHT22;18853;45.426;9.206;2022-12-07T02:45:07;9.30;56.30
32394;DHT22;18853;45.426;9.206;2022-12-07T02:47:35;9.30;56.80
32394;DHT22;18853;45.426;9.206;2022-12-07T02:50:06;9.40;57.00
32394;DHT22;18853;45.426;9.206;2022-12-07T02:52:32;9.50;57.30
32394;DHT22;18853;45.426;9.206;2022-12-07T02:54:58;9.50;56.60
32394;DHT22;18853;45.426;9.206;2022-12-07T02:57:31;9.50;56.10
32394;DHT22;18853;45.426;9.206;2022-12-07T03:00:04;9.50;55.60
32394;DHT22;18853;45.426;9.206;2022-12-07T03:02:42;9.20;55.10
32394;DHT22;18853;45.426;9.206;2022-12-07T03:05:20;9.10;56.00
32394;DHT22;18853;45.426;9.206;2022-12-07T03:11:02;9.10;55.70
32394;DHT22;18853;45.426;9.206;2022-12-07T03:13:43;9.10;55.60
32394;DHT22;18853;45.426;9.206;2022-12-07T03:16:23;9.00;55.50
32394;DHT22;18853;45.426;9.206;2022-12-07T03:19:13;9.00;55.30
32394;DHT22;18853;45.426;9.206;2022-12-07T03:21:43;8.90;55.20
32394;DHT22;18853;45.426;9.206;2022-12-07T03:24:13;8.80;55.50
32394;DHT22;18853;45.426;9.206;2022-12-07T03:26:44;8.80;55.50
32394;DHT22;18853;45.426;9.206;2022-12-07T03:29:19;8.80;55.20
32394;DHT22;18853;45.426;9.206;2022-12-07T03:31:50;8.80;55.40
32394;DHT22;18853;45.426;9.206;2022-12-07T03:34:37;8.70;55.60
32394;DHT22;18853;45.426;9.206;2022-12-07T03:37:11;8.70;56.10
32394;DHT22;18853;45.426;9.206;2022-12-07T03:42:29;8.70;56.20
32394;DHT22;18853;45.426;9.206;2022-12-07T03:44:55;8.60;56.50
32394;DHT22;18853;45.426;9.206;2022-12-07T03:50:48;8.60;56.70
32394;DHT22;18853;45.426;9.206;2022-12-07T03:52:57;8.70;56.80
32394;DHT22;18853;45.426;9.206;2022-12-07T03:55:30;8.70;56.60
32394;DHT22;18853;45.426;9.206;2022-12-07T03:58:01;8.70;56.50
32394;DHT22;18853;45.426;9.206;2022-12-07T04:00:28;8.70;56.30
32394;DHT22;18853;45.426;9.206;2022-12-07T04:02:55;8.60;56.10
32394;DHT22;18853;45.426;9.206;2022-12-07T04:05:21;8.70;56.10
32394;DHT22;18853;45.426;9.206;2022-12-07T04:07:47;8.70;56.10
32394;DHT22;18853;45.426;9.206;2022-12-07T04:10:13;8.70;56.00
32394;DHT22;18853;45.426;9.206;2022-12-07T04:12:39;8.80;55.60
32394;DHT22;18853;45.426;9.206;2022-12-07T04:15:05;8.70;55.20
32394;DHT22;18853;45.426;9.206;2022-12-07T04:17:31;8.60;55.20
32394;DHT22;18853;45.426;9.206;2022-12-07T04:19:57;8.50;55.40
32394;DHT22;18853;45.426;9.206;2022-12-07T04:22:22;8.50;55.30
32394;DHT22;18853;45.426;9.206;2022-12-07T04:24:48;8.40;55.50
32394;DHT22;18853;45.426;9.206;2022-12-07T04:27:14;8.30;55.80
32394;DHT22;18853;45.426;9.206;2022-12-07T04:29:39;8.20;55.90
32394;DHT22;18853;45.426;9.206;2022-12-07T04:32:06;8.20;56.00
32394;DHT22;18853;45.426;9.206;2022-12-07T04:34:32;8.20;56.00
32394;DHT22;18853;45.426;9.206;2022-12-07T04:36:58;8.10;55.90
32394;DHT22;18853;45.426;9.206;2022-12-07T04:39:33;8.20;56.00
32394;DHT22;18853;45.426;9.206;2022-12-07T04:41:59;8.20;55.70
32394;DHT22;18853;45.426;9.206;2022-12-07T04:44:25;8.00;55.70
32394;DHT22;18853;45.426;9.206;2022-12-07T04:46:52;7.80;55.80
32394;DHT22;18853;45.426;9.206;2022-12-07T04:49:18;7.80;56.40
32394;DHT22;18853;45.426;9.206;2022-12-07T04:51:45;7.80;56.10
32394;DHT22;18853;45.426;9.206;2022-12-07T04:54:11;7.80;55.90
32394;DHT22;18853;45.426;9.206;2022-12-07T04:56:37;7.80;55.70
32394;DHT22;18853;45.426;9.206;2022-12-07T04:59:03;7.80;56.10
32394;DHT22;18853;45.426;9.206;2022-12-07T05:01:29;7.80;56.20
32394;DHT22;18853;45.426;9.206;2022-12-07T05:03:55;7.80;56.10
32394;DHT22;18853;45.426;9.206;2022-12-07T05:06:21;7.80;56.10
32394;DHT22;18853;45.426;9.206;2022-12-07T05:08:47;7.80;56.30
32394;DHT22;18853;45.426;9.206;2022-12-07T05:11:13;7.80;56.00
32394;DHT22;18853;45.426;9.206;2022-12-07T05:14:00;7.70;55.90
32394;DHT22;18853;45.426;9.206;2022-12-07T05:16:26;7.60;56.30
32394;DHT22;18853;45.426;9.206;2022-12-07T05:18:52;7.50;56.70
32394;DHT22;18853;45.426;9.206;2022-12-07T05:21:18;7.50;56.70
32394;DHT22;18853;45.426;9.206;2022-12-07T05:23:43;7.50;56.80
32394;DHT22;18853;45.426;9.206;2022-12-07T05:26:12;7.60;56.90
32394;DHT22;18853;45.426;9.206;2022-12-07T05:28:38;7.60;56.50
32394;DHT22;18853;45.426;9.206;2022-12-07T05:31:04;7.60;56.40
32394;DHT22;18853;45.426;9.206;2022-12-07T05:33:30;7.60;57.20
32394;DHT22;18853;45.426;9.206;2022-12-07T05:35:56;7.50;56.70
32394;DHT22;18853;45.426;9.206;2022-12-07T05:38:21;7.60;56.40
32394;DHT22;18853;45.426;9.206;2022-12-07T05:40:47;7.50;56.40
32394;DHT22;18853;45.426;9.206;2022-12-07T05:43:13;7.50;56.80
32394;DHT22;18853;45.426;9.206;2022-12-07T05:45:39;7.40;57.10
32394;DHT22;18853;45.426;9.206;2022-12-07T05:48:04;7.50;57.10
32394;DHT22;18853;45.426;9.206;2022-12-07T05:50:30;7.50;57.00
32394;DHT22;18853;45.426;9.206;2022-12-07T05:52:57;7.50;57.10
32394;DHT22;18853;45.426;9.206;2022-12-07T05:55:23;7.50;57.00
32394;DHT22;18853;45.426;9.206;2022-12-07T05:57:49;7.60;57.00
32394;DHT22;18853;45.426;9.206;2022-12-07T06:00:36;7.60;56.90
32394;DHT22;18853;45.426;9.206;2022-12-07T06:03:01;7.50;57.30
32394;DHT22;18853;45.426;9.206;2022-12-07T06:05:29;7.60;57.10
32394;DHT22;18853;45.426;9.206;2022-12-07T06:07:54;7.60;56.90
32394;DHT22;18853;45.426;9.206;2022-12-07T06:10:21;7.60;57.30
32394;DHT22;18853;45.426;9.206;2022-12-07T06:12:47;7.60;57.30
32394;DHT22;18853;45.426;9.206;2022-12-07T06:15:14;7.60;57.40
32394;DHT22;18853;45.426;9.206;2022-12-07T06:17:40;7.60;57.50
32394;DHT22;18853;45.426;9.206;2022-12-07T06:20:06;7.50;57.60
32394;DHT22;18853;45.426;9.206;2022-12-07T06:22:33;7.50;57.70
32394;DHT22;18853;45.426;9.206;2022-12-07T06:25:02;7.60;57.60
32394;DHT22;18853;45.426;9.206;2022-12-07T06:27:29;7.60;57.60
32394;DHT22;18853;45.426;9.206;2022-12-07T06:29:58;7.60;57.40
32394;DHT22;18853;45.426;9.206;2022-12-07T06:32:24;7.70;57.40
32394;DHT22;18853;45.426;9.206;2022-12-07T06:34:50;7.70;57.40
32394;DHT22;18853;45.426;9.206;2022-12-07T06:37:16;7.70;57.40
32394;DHT22;18853;45.426;9.206;2022-12-07T06:39:42;7.70;57.00
32394;DHT22;18853;45.426;9.206;2022-12-07T06:42:08;7.70;57.10
32394;DHT22;18853;45.426;9.206;2022-12-07T06:44:35;7.70;57.40
32394;DHT22;18853;45.426;9.206;2022-12-07T06:47:01;7.60;57.40
32394;DHT22;18853;45.426;9.206;2022-12-07T06:49:28;7.60;57.40
32394;DHT22;18853;45.426;9.206;2022-12-07T06:51:54;7.60;57.80
32394;DHT22;18853;45.426;9.206;2022-12-07T06:54:21;7.50;57.90
32394;DHT22;18853;45.426;9.206;2022-12-07T06:56:46;7.60;58.00
32394;DHT22;18853;45.426;9.206;2022-12-07T06:59:12;7.60;58.00
32394;DHT22;18853;45.426;9.206;2022-12-07T07:01:38;7.70;58.00
32394;DHT22;18853;45.426;9.206;2022-12-07T07:04:04;7.70;58.00
32394;DHT22;18853;45.426;9.206;2022-12-07T07:06:29;7.80;58.00
32394;DHT22;18853;45.426;9.206;2022-12-07T07:08:55;7.80;57.90
32394;DHT22;18853;45.426;9.206;2022-12-07T07:11:21;7.90;57.90
32394;DHT22;18853;45.426;9.206;2022-12-07T07:13:47;7.80;57.80
32394;DHT22;18853;45.426;9.206;2022-12-07T07:16:12;7.80;57.70
32394;DHT22;18853;45.426;9.206;2022-12-07T07:18:38;7.70;57.90
32394;DHT22;18853;45.426;9.206;2022-12-07T07:21:04;7.70;58.30
32394;DHT22;18853;45.426;9.206;2022-12-07T07:23:30;7.60;58.50
32394;DHT22;18853;45.426;9.206;2022-12-07T07:25:56;7.60;58.40
32394;DHT22;18853;45.426;9.206;2022-12-07T07:28:22;7.60;58.30
32394;DHT22;18853;45.426;9.206;2022-12-07T07:30:47;7.50;58.30
32394;DHT22;18853;45.426;9.206;2022-12-07T07:33:13;7.50;58.70
32394;DHT22;18853;45.426;9.206;2022-12-07T07:35:39;7.40;59.10
32394;DHT22;18853;45.426;9.206;2022-12-07T07:38:05;7.40;59.10
32394;DHT22;18853;45.426;9.206;2022-12-07T07:40:30;7.50;59.10
32394;DHT22;18853;45.426;9.206;2022-12-07T07:42:56;7.60;58.80
32394;DHT22;18853;45.426;9.206;2022-12-07T07:45:24;7.60;58.70
32394;DHT22;18853;45.426;9.206;2022-12-07T07:47:51;7.60;58.60
32394;DHT22;18853;45.426;9.206;2022-12-07T07:50:17;7.70;58.60
32394;DHT22;18853;45.426;9.206;2022-12-07T07:52:43;7.70;58.00
32394;DHT22;18853;45.426;9.206;2022-12-07T07:55:10;7.70;58.50
32394;DHT22;18853;45.426;9.206;2022-12-07T07:57:39;7.70;58.60
32394;DHT22;18853;45.426;9.206;2022-12-07T08:00:08;7.60;58.50
32394;DHT22;18853;45.426;9.206;2022-12-07T08:02:34;7.70;58.60
32394;DHT22;18853;45.426;9.206;2022-12-07T08:05:00;7.60;58.60
32394;DHT22;18853;45.426;9.206;2022-12-07T08:07:27;7.60;58.40
32394;DHT22;18853;45.426;9.206;2022-12-07T08:09:53;7.70;58.50
32394;DHT22;18853;45.426;9.206;2022-12-07T08:12:19;7.70;58.60
32394;DHT22;18853;45.426;9.206;2022-12-07T08:14:44;7.70;58.70
32394;DHT22;18853;45.426;9.206;2022-12-07T08:17:10;7.70;58.60
32394;DHT22;18853;45.426;9.206;2022-12-07T08:19:36;7.70;58.80
32394;DHT22;18853;45.426;9.206;2022-12-07T08:22:02;7.80;58.50
32394;DHT22;18853;45.426;9.206;2022-12-07T08:24:27;7.80;58.60
32394;DHT22;18853;45.426;9.206;2022-12-07T08:26:53;7.80;58.60
32394;DHT22;18853;45.426;9.206;2022-12-07T08:29:19;7.80;58.90
32394;DHT22;18853;45.426;9.206;2022-12-07T08:31:45;7.80;58.90
32394;DHT22;18853;45.426;9.206;2022-12-07T08:34:11;7.90;58.50
32394;DHT22;18853;45.426;9.206;2022-12-07T08:36:37;7.80;58.70
32394;DHT22;18853;45.426;9.206;2022-12-07T08:39:03;7.80;58.80
32394;DHT22;18853;45.426;9.206;2022-12-07T08:41:29;7.80;58.80
32394;DHT22;18853;45.426;9.206;2022-12-07T08:43:55;7.80;59.30
32394;DHT22;18853;45.426;9.206;2022-12-07T08:46:34;7.70;59.40
32394;DHT22;18853;45.426;9.206;2022-12-07T08:49:11;7.70;59.80
32394;DHT22;18853;45.426;9.206;2022-12-07T08:51:39;7.70;59.80
32394;DHT22;18853;45.426;9.206;2022-12-07T08:54:07;7.70;59.90
32394;DHT22;18853;45.426;9.206;2022-12-07T08:56:35;7.70;59.40
32394;DHT22;18853;45.426;9.206;2022-12-07T08:59:01;7.80;59.40
32394;DHT22;18853;45.426;9.206;2022-12-07T09:01:26;7.70;59.20
32394;DHT22;18853;45.426;9.206;2022-12-07T09:03:53;7.80;59.10
32394;DHT22;18853;45.426;9.206;2022-12-07T09:06:18;7.90;59.20
32394;DHT22;18853;45.426;9.206;2022-12-07T09:08:47;7.90;59.30
32394;DHT22;18853;45.426;9.206;2022-12-07T09:11:13;7.80;59.10
32394;DHT22;18853;45.426;9.206;2022-12-07T09:13:39;7.80;59.20
32394;DHT22;18853;45.426;9.206;2022-12-07T09:16:05;7.80;59.40
32394;DHT22;18853;45.426;9.206;2022-12-07T09:18:31;7.90;59.00
32394;DHT22;18853;45.426;9.206;2022-12-07T09:20:57;7.90;58.90
32394;DHT22;18853;45.426;9.206;2022-12-07T09:23:23;7.90;59.30
32394;DHT22;18853;45.426;9.206;2022-12-07T09:25:49;7.90;59.20
32394;DHT22;18853;45.426;9.206;2022-12-07T09:28:14;7.90;59.00
32394;DHT22;18853;45.426;9.206;2022-12-07T09:30:46;7.90;58.90
32394;DHT22;18853;45.426;9.206;2022-12-07T09:33:12;7.90;59.30
32394;DHT22;18853;45.426;9.206;2022-12-07T09:35:38;7.90;59.70
32394;DHT22;18853;45.426;9.206;2022-12-07T09:38:03;7.90;59.70
32394;DHT22;18853;45.426;9.206;2022-12-07T09:40:29;8.00;59.80
32394;DHT22;18853;45.426;9.206;2022-12-07T09:42:55;8.00;59.40
32394;DHT22;18853;45.426;9.206;2022-12-07T09:45:25;8.10;59.40
32394;DHT22;18853;45.426;9.206;2022-12-07T09:47:52;8.10;59.10
32394;DHT22;18853;45.426;9.206;2022-12-07T09:50:25;8.10;59.40
32394;DHT22;18853;45.426;9.206;2022-12-07T09:52:52;8.20;59.50
32394;DHT22;18853;45.426;9.206;2022-12-07T09:55:26;8.10;59.40
32394;DHT22;18853;45.426;9.206;2022-12-07T09:57:53;8.10;59.50
32394;DHT22;18853;45.426;9.206;2022-12-07T10:00:21;8.10;59.70
32394;DHT22;18853;45.426;9.206;2022-12-07T10:03:00;8.20;59.50
32394;DHT22;18853;45.426;9.206;2022-12-07T10:08:00;8.30;59.00
32394;DHT22;18853;45.426;9.206;2022-12-07T10:10:31;8.20;59.20
32394;DHT22;18853;45.426;9.206;2022-12-07T10:15:57;8.30;59.30
32394;DHT22;18853;45.426;9.206;2022-12-07T10:18:40;8.30;59.00
32394;DHT22;18853;45.426;9.206;2022-12-07T10:21:24;8.30;59.00
32394;DHT22;18853;45.426;9.206;2022-12-07T10:26:26;8.20;58.90
32394;DHT22;18853;45.426;9.206;2022-12-07T10:28:53;8.10;59.30
32394;DHT22;18853;45.426;9.206;2022-12-07T10:31:22;8.20;59.20
32394;DHT22;18853;45.426;9.206;2022-12-07T10:33:54;8.10;59.40
32394;DHT22;18853;45.426;9.206;2022-12-07T10:42:00;8.10;59.40
32394;DHT22;18853;45.426;9.206;2022-12-07T10:44:31;8.20;59.50
32394;DHT22;18853;45.426;9.206;2022-12-07T11:14:44;8.30;59.90
32394;DHT22;18853;45.426;9.206;2022-12-07T11:17:38;8.40;59.90
32394;DHT22;18853;45.426;9.206;2022-12-07T11:20:47;8.40;59.80
32394;DHT22;18853;45.426;9.206;2022-12-07T11:26:23;8.50;59.80
32394;DHT22;18853;45.426;9.206;2022-12-07T11:29:55;8.60;59.70
32394;DHT22;18853;45.426;9.206;2022-12-07T11:37:51;8.80;59.60
32394;DHT22;18853;45.426;9.206;2022-12-07T11:40:26;8.80;59.80
32394;DHT22;18853;45.426;9.206;2022-12-07T11:45:51;9.00;59.80
32394;DHT22;18853;45.426;9.206;2022-12-07T11:48:33;9.00;59.70
32394;DHT22;18853;45.426;9.206;2022-12-07T11:51:01;9.10;59.90
32394;DHT22;18853;45.426;9.206;2022-12-07T11:53:39;9.10;59.70
32394;DHT22;18853;45.426;9.206;2022-12-07T11:56:19;9.20;59.80
32394;DHT22;18853;45.426;9.206;2022-12-07T11:58:49;9.20;59.90
32394;DHT22;18853;45.426;9.206;2022-12-07T12:01:56;9.20;60.00
32394;DHT22;18853;45.426;9.206;2022-12-07T12:04:27;9.20;60.20
32394;DHT22;18853;45.426;9.206;2022-12-07T12:06:54;9.20;60.00
32394;DHT22;18853;45.426;9.206;2022-12-07T12:12:23;9.30;60.20
32394;DHT22;18853;45.426;9.206;2022-12-07T12:20:34;9.50;60.30
32394;DHT22;18853;45.426;9.206;2022-12-07T12:23:15;9.50;60.20
32394;DHT22;18853;45.426;9.206;2022-12-07T12:25:50;9.50;60.40
32394;DHT22;18853;45.426;9.206;2022-12-07T12:28:35;9.40;60.60
32394;DHT22;18853;45.426;9.206;2022-12-07T12:33:52;9.50;60.80
32394;DHT22;18853;45.426;9.206;2022-12-07T12:39:10;9.40;61.10
32394;DHT22;18853;45.426;9.206;2022-12-07T12:47:04;9.40;61.20
32394;DHT22;18853;45.426;9.206;2022-12-07T12:51:58;9.40;61.50
32394;DHT22;18853;45.426;9.206;2022-12-07T12:54:29;9.40;61.10
32394;DHT22;18853;45.426;9.206;2022-12-07T12:59:42;9.50;61.20
32394;DHT22;18853;45.426;9.206;2022-12-07T13:20:59;9.50;61.40
32394;DHT22;18853;45.426;9.206;2022-12-07T13:29:15;9.70;61.10
32394;DHT22;18853;45.426;9.206;2022-12-07T13:31:51;10.10;61.00
32394;DHT22;18853;45.426;9.206;2022-12-07T13:34:37;10.30;60.30
32394;DHT22;18853;45.426;9.206;2022-12-07T13:37:21;10.60;59.50
32394;DHT22;18853;45.426;9.206;2022-12-07T13:39:51;10.90;58.90
32394;DHT22;18853;45.426;9.206;2022-12-07T13:42:28;11.10;58.40
32394;DHT22;18853;45.426;9.206;2022-12-07T13:44:54;11.30;57.90
32394;DHT22;18853;45.426;9.206;2022-12-07T13:49:57;11.60;56.90
32394;DHT22;18853;45.426;9.206;2022-12-07T13:52:26;11.90;56.80
32394;DHT22;18853;45.426;9.206;2022-12-07T13:55:01;12.10;56.20
32394;DHT22;18853;45.426;9.206;2022-12-07T13:57:29;12.20;55.70
32394;DHT22;18853;45.426;9.206;2022-12-07T14:00:00;12.30;55.60
32394;DHT22;18853;45.426;9.206;2022-12-07T14:02:34;12.40;55.40
32394;DHT22;18853;45.426;9.206;2022-12-07T14:10:40;12.90;54.50
32394;DHT22;18853;45.426;9.206;2022-12-07T14:13:34;13.10;53.90
32394;DHT22;18853;45.426;9.206;2022-12-07T14:16:05;13.30;53.30
32394;DHT22;18853;45.426;9.206;2022-12-07T14:18:41;13.40;53.40
32394;DHT22;18853;45.426;9.206;2022-12-07T14:23:36;13.30;52.90
32394;DHT22;18853;45.426;9.206;2022-12-07T14:26:19;13.30;53.00
32394;DHT22;18853;45.426;9.206;2022-12-07T14:28:46;13.20;52.90
32394;DHT22;18853;45.426;9.206;2022-12-07T14:31:14;13.20;53.40
32394;DHT22;18853;45.426;9.206;2022-12-07T14:33:41;13.20;53.20
32394;DHT22;18853;45.426;9.206;2022-12-07T14:36:12;13.30;53.20
32394;DHT22;18853;45.426;9.206;2022-12-07T14:38:38;13.20;53.10
32394;DHT22;18853;45.426;9.206;2022-12-07T14:41:04;13.20;53.20
32394;DHT22;18853;45.426;9.206;2022-12-07T14:43:50;13.10;53.50
32394;DHT22;18853;45.426;9.206;2022-12-07T14:46:16;13.00;53.60
32394;DHT22;18853;45.426;9.206;2022-12-07T14:48:42;12.80;53.80
32394;DHT22;18853;45.426;9.206;2022-12-07T14:51:10;12.70;54.30
32394;DHT22;18853;45.426;9.206;2022-12-07T14:53:42;12.50;54.50
32394;DHT22;18853;45.426;9.206;2022-12-07T14:56:09;12.40;55.00
32394;DHT22;18853;45.426;9.206;2022-12-07T14:58:35;12.30;55.30
32394;DHT22;18853;45.426;9.206;2022-12-07T15:01:00;12.10;55.30
32394;DHT22;18853;45.426;9.206;2022-12-07T15:03:26;12.00;55.70
32394;DHT22;18853;45.426;9.206;2022-12-07T15:05:52;12.00;56.10
32394;DHT22;18853;45.426;9.206;2022-12-07T15:08:18;11.90;56.20
32394;DHT22;18853;45.426;9.206;2022-12-07T15:10:44;11.90;56.40
32394;DHT22;18853;45.426;9.206;2022-12-07T15:13:10;11.80;56.60
32394;DHT22;18853;45.426;9.206;2022-12-07T15:15:54;11.80;56.70
32394;DHT22;18853;45.426;9.206;2022-12-07T15:18:22;11.70;56.90
32394;DHT22;18853;45.426;9.206;2022-12-07T15:20:49;11.70;57.00
32394;DHT22;18853;45.426;9.206;2022-12-07T15:23:15;11.60;57.10
32394;DHT22;18853;45.426;9.206;2022-12-07T15:25:45;11.60;57.00
32394;DHT22;18853;45.426;9.206;2022-12-07T15:28:11;11.60;57.30
32394;DHT22;18853;45.426;9.206;2022-12-07T15:30:37;11.50;57.40
32394;DHT22;18853;45.426;9.206;2022-12-07T15:33:03;11.40;57.70
32394;DHT22;18853;45.426;9.206;2022-12-07T15:35:29;11.40;57.80
32394;DHT22;18853;45.426;9.206;2022-12-07T15:37:54;11.40;58.00
32394;DHT22;18853;45.426;9.206;2022-12-07T15:40:20;11.40;58.10
32394;DHT22;18853;45.426;9.206;2022-12-07T15:42:46;11.30;58.20
32394;DHT22;18853;45.426;9.206;2022-12-07T15:45:12;11.30;58.20
32394;DHT22;18853;45.426;9.206;2022-12-07T15:47:43;11.30;58.20
32394;DHT22;18853;45.426;9.206;2022-12-07T15:50:12;11.20;58.30
32394;DHT22;18853;45.426;9.206;2022-12-07T15:52:38;11.20;58.40
32394;DHT22;18853;45.426;9.206;2022-12-07T15:55:05;11.10;58.50
32394;DHT22;18853;45.426;9.206;2022-12-07T15:57:32;11.10;58.70
32394;DHT22;18853;45.426;9.206;2022-12-07T15:59:58;11.00;58.70
32394;DHT22;18853;45.426;9.206;2022-12-07T16:02:24;11.10;58.80
32394;DHT22;18853;45.426;9.206;2022-12-07T16:04:50;11.00;58.80
32394;DHT22;18853;45.426;9.206;2022-12-07T16:07:17;10.90;58.80
32394;DHT22;18853;45.426;9.206;2022-12-07T16:09:44;11.00;58.90
32394;DHT22;18853;45.426;9.206;2022-12-07T16:12:11;11.00;58.80
32394;DHT22;18853;45.426;9.206;2022-12-07T16:14:38;10.90;58.90
32394;DHT22;18853;45.426;9.206;2022-12-07T16:17:04;10.90;59.00
32394;DHT22;18853;45.426;9.206;2022-12-07T16:19:31;10.90;59.10
32394;DHT22;18853;45.426;9.206;2022-12-07T16:21:57;10.90;59.10
32394;DHT22;18853;45.426;9.206;2022-12-07T16:24:22;10.90;59.20
32394;DHT22;18853;45.426;9.206;2022-12-07T16:26:48;10.80;59.10
32394;DHT22;18853;45.426;9.206;2022-12-07T16:29:15;10.80;59.10
32394;DHT22;18853;45.426;9.206;2022-12-07T16:31:41;10.80;59.10
32394;DHT22;18853;45.426;9.206;2022-12-07T16:34:07;10.80;59.20
32394;DHT22;18853;45.426;9.206;2022-12-07T16:36:33;10.70;59.40
32394;DHT22;18853;45.426;9.206;2022-12-07T16:38:59;10.80;59.30
32394;DHT22;18853;45.426;9.206;2022-12-07T16:41:25;10.80;59.10
32394;DHT22;18853;45.426;9.206;2022-12-07T16:43:51;10.80;58.90
32394;DHT22;18853;45.426;9.206;2022-12-07T16:46:17;10.80;58.90
32394;DHT22;18853;45.426;9.206;2022-12-07T16:48:43;10.80;58.80
32394;DHT22;18853;45.426;9.206;2022-12-07T16:51:11;10.90;59.00
32394;DHT22;18853;45.426;9.206;2022-12-07T16:53:39;10.90;59.00
32394;DHT22;18853;45.426;9.206;2022-12-07T16:56:10;10.80;59.00
32394;DHT22;18853;45.426;9.206;2022-12-07T16:58:36;10.80;58.90
32394;DHT22;18853;45.426;9.206;2022-12-07T17:01:10;10.90;58.80
32394;DHT22;18853;45.426;9.206;2022-12-07T17:03:35;10.90;59.40
32394;DHT22;18853;45.426;9.206;2022-12-07T17:06:01;10.80;58.80
32394;DHT22;18853;45.426;9.206;2022-12-07T17:08:27;10.80;58.70
32394;DHT22;18853;45.426;9.206;2022-12-07T17:10:52;10.80;58.80
32394;DHT22;18853;45.426;9.206;2022-12-07T17:13:18;10.70;58.70
32394;DHT22;18853;45.426;9.206;2022-12-07T17:16:05;10.70;58.90
32394;DHT22;18853;45.426;9.206;2022-12-07T17:18:33;10.50;59.00
32394;DHT22;18853;45.426;9.206;2022-12-07T17:21:05;10.40;59.30
32394;DHT22;18853;45.426;9.206;2022-12-07T17:23:31;10.40;59.40
32394;DHT22;18853;45.426;9.206;2022-12-07T17:26:07;10.30;59.60
32394;DHT22;18853;45.426;9.206;2022-12-07T17:28:33;10.40;59.40
32394;DHT22;18853;45.426;9.206;2022-12-07T17:30:59;10.30;59.50
32394;DHT22;18853;45.426;9.206;2022-12-07T17:33:25;10.20;59.70
32394;DHT22;18853;45.426;9.206;2022-12-07T17:35:51;10.20;60.00
32394;DHT22;18853;45.426;9.206;2022-12-07T17:38:16;10.20;60.00
32394;DHT22;18853;45.426;9.206;2022-12-07T17:40:42;10.10;60.00
32394;DHT22;18853;45.426;9.206;2022-12-07T17:43:08;10.20;59.80
32394;DHT22;18853;45.426;9.206;2022-12-07T17:45:35;10.00;60.10
32394;DHT22;18853;45.426;9.206;2022-12-07T17:48:01;10.00;60.30
32394;DHT22;18853;45.426;9.206;2022-12-07T17:50:26;10.00;60.20
32394;DHT22;18853;45.426;9.206;2022-12-07T17:53:11;10.00;60.50
32394;DHT22;18853;45.426;9.206;2022-12-07T17:55:37;9.90;60.20
32394;DHT22;18853;45.426;9.206;2022-12-07T17:58:03;10.00;60.40
32394;DHT22;18853;45.426;9.206;2022-12-07T18:00:29;10.00;60.40
32394;DHT22;18853;45.426;9.206;2022-12-07T18:02:55;10.00;60.40
32394;DHT22;18853;45.426;9.206;2022-12-07T18:05:21;9.90;60.50
32394;DHT22;18853;45.426;9.206;2022-12-07T18:07:46;9.90;60.80